createdAt,value
2019-01-16T00:04:37.508Z,6.77
2019-01-16T00:09:47.497Z,6.72
2019-01-16T00:14:51.667Z,6.75
2019-01-16T00:20:02.441Z,6.75
2019-01-16T00:25:00.252Z,6.72
2019-01-16T00:30:00.810Z,6.72
2019-01-16T00:35:16.648Z,6.71
2019-01-16T00:40:15.059Z,6.72
2019-01-16T00:50:37.249Z,6.79
2019-01-16T00:55:35.054Z,6.78
2019-01-16T01:00:38.876Z,6.82
2019-01-16T01:05:53.651Z,6.85
2019-01-16T01:10:51.527Z,6.83
2019-01-16T01:15:58.802Z,6.83
2019-01-16T01:21:13.550Z,6.87
2019-01-16T01:26:20.513Z,6.92
2019-01-16T01:31:24.362Z,6.84
2019-01-16T01:36:38.813Z,6.79
2019-01-16T01:41:39.655Z,6.85
2019-01-16T01:46:39.968Z,6.87
2019-01-16T01:51:43.791Z,6.88
2019-01-16T02:02:00.477Z,6.91
2019-01-16T02:07:10.434Z,6.88
2019-01-16T02:12:20.361Z,6.88
2019-01-16T02:17:36.333Z,6.92
2019-01-16T02:22:34.255Z,6.96
2019-01-16T02:27:32.061Z,6.95
2019-01-16T02:37:52.470Z,6.94
2019-01-16T02:42:53.333Z,6.95
2019-01-16T02:47:53.951Z,6.92
2019-01-16T02:52:54.543Z,6.89
2019-01-16T02:57:52.485Z,6.89
2019-01-16T03:02:50.348Z,6.80
2019-01-16T03:07:51.143Z,6.83
2019-01-16T03:12:52.024Z,6.73
2019-01-16T03:18:04.739Z,6.63
2019-01-16T03:23:20.382Z,6.60
2019-01-16T03:28:27.251Z,6.56
2019-01-16T03:33:28.087Z,6.60
2019-01-16T03:38:44.025Z,6.56
2019-01-16T03:43:41.855Z,6.57
2019-01-16T03:48:43.358Z,6.59
2019-01-16T03:53:44.339Z,6.64
2019-01-16T03:58:44.924Z,6.65
2019-01-16T04:09:16.511Z,6.77
2019-01-16T04:14:14.359Z,6.85
2019-01-16T04:19:30.181Z,6.87
2019-01-16T04:24:40.035Z,6.87
2019-01-16T04:29:37.857Z,6.88
2019-01-16T04:34:44.783Z,6.92
2019-01-16T04:39:48.384Z,6.94
2019-01-16T04:44:52.052Z,6.99
2019-01-16T04:49:53.379Z,7.00
2019-01-16T04:54:57.428Z,6.95
2019-01-16T04:59:57.998Z,6.97
2019-01-16T05:04:58.351Z,7.00
2019-01-16T05:10:12.940Z,6.95
2019-01-16T05:15:16.647Z,6.94
2019-01-16T05:20:32.812Z,6.97
2019-01-16T05:25:36.774Z,6.98
2019-01-16T05:30:51.122Z,7.00
2019-01-16T05:36:06.627Z,7.02
2019-01-16T05:41:20.508Z,7.01
2019-01-16T05:46:24.180Z,7.02
2019-01-16T05:51:29.704Z,6.95
2019-01-16T05:56:28.131Z,7.01
2019-01-16T06:01:33.041Z,6.99
2019-01-16T06:06:44.255Z,6.97
2019-01-16T06:17:10.332Z,6.85
2019-01-16T06:22:10.613Z,6.79
2019-01-16T06:27:11.858Z,6.76
2019-01-16T06:32:27.037Z,6.70
2019-01-16T06:37:42.312Z,6.65
2019-01-16T06:42:43.016Z,6.68
2019-01-16T06:47:44.108Z,6.65
2019-01-16T06:52:50.994Z,6.63
2019-01-16T06:57:48.792Z,6.59
2019-01-16T07:02:46.626Z,6.60
2019-01-16T07:07:47.193Z,6.57
2019-01-16T07:18:01.336Z,6.40
2019-01-16T07:23:04.685Z,6.41
2019-01-16T07:28:19.298Z,6.43
2019-01-16T07:33:28.779Z,6.36
2019-01-16T07:38:41.701Z,6.39
2019-01-16T07:43:42.187Z,6.41
2019-01-16T07:48:59.434Z,6.49
2019-01-16T07:54:13.792Z,6.48
2019-01-16T07:59:21.534Z,6.54
2019-01-16T08:04:32.182Z,6.57
2019-01-16T08:09:32.563Z,6.59
2019-01-16T08:14:47.033Z,6.64
2019-01-16T08:19:51.316Z,6.72
2019-01-16T08:24:52.040Z,6.72
2019-01-16T08:29:55.948Z,6.76
2019-01-16T08:34:53.849Z,6.80
2019-01-16T08:39:57.623Z,6.81
2019-01-16T08:44:57.954Z,6.82
2019-01-16T08:50:05.263Z,6.79
2019-01-16T08:55:05.828Z,6.78
2019-01-16T09:00:06.835Z,6.82
2019-01-16T09:05:07.592Z,6.81
2019-01-16T09:10:11.358Z,6.87
2019-01-16T09:15:10.273Z,6.91
2019-01-16T09:20:11.201Z,6.88
2019-01-16T09:25:09.107Z,6.90
2019-01-16T09:30:10.724Z,6.88
2019-01-16T09:35:17.375Z,6.95
2019-01-16T09:40:32.114Z,7.04
2019-01-16T09:45:46.871Z,7.00
2019-01-16T09:50:55.737Z,7.07
2019-01-16T09:55:56.994Z,7.07
2019-01-16T10:01:07.058Z,7.00
2019-01-16T10:06:17.532Z,6.93
2019-01-16T10:11:15.436Z,6.92
2019-01-16T10:16:25.162Z,6.95
2019-01-16T10:21:31.962Z,7.02
2019-01-16T10:26:32.268Z,6.97
2019-01-16T10:31:38.777Z,7.08
2019-01-16T10:36:42.398Z,7.05
2019-01-16T10:41:57.162Z,7.04
2019-01-16T10:46:57.731Z,7.08
2019-01-16T10:52:12.637Z,7.10
2019-01-16T10:57:19.498Z,7.16
2019-01-16T11:02:29.208Z,7.02
2019-01-16T11:07:42.116Z,7.00
2019-01-16T11:12:42.932Z,7.06
2019-01-16T11:17:40.852Z,7.00
2019-01-16T11:22:55.267Z,6.89
2019-01-16T11:27:59.161Z,6.88
2019-01-16T11:33:06.284Z,6.86
2019-01-16T11:38:06.911Z,6.75
2019-01-16T11:43:07.717Z,6.63
2019-01-16T11:48:23.863Z,6.67
2019-01-16T11:53:21.672Z,6.66
2019-01-16T11:58:25.523Z,6.68
2019-01-16T12:03:26.092Z,6.70
2019-01-16T12:08:26.672Z,6.61
2019-01-16T12:13:36.817Z,6.72
2019-01-16T12:18:34.632Z,6.63
2019-01-16T12:23:35.235Z,6.66
2019-01-16T12:28:33.066Z,6.70
2019-01-16T12:33:33.407Z,6.65
2019-01-16T12:38:48.420Z,6.54
2019-01-16T12:43:49.407Z,6.58
2019-01-16T12:49:06.047Z,6.47
2019-01-16T12:54:06.834Z,6.44
2019-01-16T12:59:10.787Z,6.34
2019-01-16T13:04:08.614Z,6.42
2019-01-16T13:09:17.416Z,6.43
2019-01-16T13:14:17.991Z,6.34
2019-01-16T13:24:41.082Z,6.30
2019-01-16T13:29:38.915Z,6.31
2019-01-16T13:34:53.792Z,6.35
2019-01-16T13:45:13.525Z,6.33
2019-01-16T13:50:30.041Z,6.38
2019-01-16T13:55:39.958Z,6.28
2019-01-16T14:00:40.754Z,6.27
2019-01-16T14:05:38.572Z,6.27
2019-01-16T14:10:45.604Z,6.24
2019-01-16T14:15:46.475Z,6.27
2019-01-16T14:21:00.938Z,6.27
2019-01-16T14:26:15.631Z,6.27
2019-01-16T14:31:29.844Z,6.23
2019-01-16T14:36:30.682Z,6.26
2019-01-16T14:41:44.772Z,6.23
2019-01-16T14:46:48.560Z,6.32
2019-01-16T14:51:52.254Z,6.20
2019-01-16T14:57:06.824Z,6.20
2019-01-16T15:02:10.893Z,6.18
2019-01-16T15:07:11.460Z,6.18
2019-01-16T15:12:09.284Z,6.14
2019-01-16T15:17:13.122Z,6.15
2019-01-16T15:22:28.117Z,6.12
2019-01-16T15:27:29.030Z,6.12
2019-01-16T15:32:39.144Z,6.24
2019-01-16T15:37:39.792Z,6.10
2019-01-16T15:42:40.646Z,6.09
2019-01-16T15:47:38.461Z,6.13
2019-01-16T15:52:53.168Z,6.02
2019-01-16T15:58:06.049Z,5.95
2019-01-16T16:03:04.245Z,5.94
2019-01-16T16:08:02.170Z,6.06
2019-01-16T16:13:02.791Z,6.01
2019-01-16T16:18:15.646Z,5.98
2019-01-16T16:23:16.899Z,6.04
2019-01-16T16:28:21.376Z,5.97
2019-01-16T16:33:20.066Z,5.99
2019-01-16T16:38:17.985Z,5.98
2019-01-16T16:43:18.116Z,5.98
2019-01-16T16:48:25.182Z,5.96
2019-01-16T16:53:26.705Z,5.92
2019-01-16T16:58:36.935Z,5.99
2019-01-16T17:14:14.803Z,5.92
2019-01-16T17:19:33.046Z,5.95
2019-01-16T17:24:46.048Z,5.97
2019-01-16T17:29:43.854Z,6.03
2019-01-16T17:34:41.840Z,5.97
2019-01-16T17:39:48.827Z,5.98
2019-01-16T17:44:58.956Z,5.93
2019-01-16T17:50:06.157Z,5.92
2019-01-16T17:55:22.861Z,5.89
2019-01-16T18:00:36.034Z,5.90
2019-01-16T18:05:42.639Z,5.90
2019-01-16T18:10:40.456Z,5.83
2019-01-16T18:15:56.591Z,5.87
2019-01-16T18:20:54.397Z,5.80
2019-01-16T18:26:02.411Z,5.84
2019-01-16T18:31:03.764Z,5.82
2019-01-16T18:36:13.725Z,5.81
2019-01-16T18:41:26.894Z,5.75
2019-01-16T18:46:24.718Z,5.78
2019-01-16T18:51:38.130Z,5.83
2019-01-16T18:56:38.806Z,5.80
2019-01-16T19:01:36.641Z,5.68
2019-01-16T19:06:43.809Z,5.79
2019-01-16T19:11:47.631Z,5.79
2019-01-16T19:16:54.368Z,5.74
2019-01-16T19:21:52.180Z,5.75
2019-01-16T19:26:52.996Z,5.77
2019-01-16T19:31:59.810Z,5.81
2019-01-16T19:37:14.071Z,5.85
2019-01-16T19:42:11.885Z,5.71
2019-01-16T19:47:09.799Z,5.84
2019-01-16T19:52:10.462Z,5.75
2019-01-16T19:57:17.183Z,5.81
2019-01-16T20:02:15.209Z,5.88
2019-01-16T20:07:13.134Z,5.76
2019-01-16T20:12:17.195Z,5.77
2019-01-16T20:17:20.777Z,5.75
2019-01-16T20:22:21.359Z,5.77
2019-01-16T20:27:19.281Z,5.66
2019-01-16T20:32:17.086Z,5.84
2019-01-16T20:37:20.514Z,5.75
2019-01-16T20:42:34.685Z,5.81
2019-01-16T20:47:42.254Z,5.80
2019-01-16T20:52:48.900Z,5.86
2019-01-16T20:57:52.726Z,5.95
2019-01-16T21:02:59.148Z,5.92
2019-01-16T21:07:56.949Z,5.96
2019-01-16T21:12:54.756Z,6.01
2019-01-16T21:18:19.376Z,5.99
2019-01-16T21:23:34.255Z,6.04
2019-01-16T21:28:38.252Z,6.04
2019-01-16T21:33:44.823Z,6.04
2019-01-16T21:38:42.730Z,6.06
2019-01-16T21:43:53.022Z,6.02
2019-01-16T21:48:58.964Z,6.06
2019-01-16T21:53:56.863Z,6.05
2019-01-16T21:58:57.452Z,6.07
2019-01-16T22:03:58.311Z,6.09
2019-01-16T22:08:58.901Z,6.09
2019-01-16T22:14:11.978Z,6.02
2019-01-16T22:19:16.233Z,6.03
2019-01-16T22:24:31.320Z,6.00
2019-01-16T22:29:29.129Z,5.97
2019-01-16T22:34:29.670Z,6.01
2019-01-16T22:39:44.323Z,5.96
2019-01-16T22:44:42.118Z,5.93
2019-01-16T22:49:49.877Z,5.91
2019-01-16T22:55:04.489Z,5.84
2019-01-16T23:00:02.294Z,5.87
2019-01-16T23:05:12.458Z,5.84
2019-01-16T23:10:25.630Z,5.89
2019-01-16T23:15:29.206Z,5.87
2019-01-16T23:20:27.007Z,5.89
2019-01-16T23:25:24.822Z,5.91
2019-01-16T23:30:34.989Z,5.98
2019-01-16T23:35:39.463Z,5.86
2019-01-16T23:40:37.366Z,5.69
2019-01-16T23:45:41.229Z,5.75
2019-01-16T23:50:57.051Z,5.74
2019-01-16T23:55:54.894Z,5.77
